Portada
METAR-TAF:

METAR-TAF

Aeroports :

Àstrakhan, Rússia

latitud: 46-17N, longitud: 048-00-23E, altitud: 0 m

Observació

L'informe es va fer fa 25 minuts, a les 06:30 UTC
Vent 12 kt del Sud/Sud-Oest
Temperatura 6°C
Humitat 70%
Pressió 1018 hPa
Visibilitat 10 km o més
sense núvols per sota de 1500 mi sense presència de cumulonimbus.

METAR: URWA 050630Z 21006MPS CAVOK 06/01 Q1018 R27/010070 NOSIG RMK QFE766/1021

Hora: 10:55 (06:55 UTC)

Pronòstic

L'informe es va fer fa 1 hora i 55 minuts, a les 05:00 UTC
Pronòstic vàlid del 05 a les 06 UTC al 05 a les 15 UTC
Vent 14 kt del Sud-Oest amb ràfegues de 27 kt
Visibilitat 10 km o més
Núvols disperses a una alçada de 4000 ft

TAF: URWA 050500Z 0506/0515 23007G14MPS 9999 SCT040

Observacions i pronòstics meteorològics de més de 4000 aeroports (METAR i TAF).

Les estacions disponibles són els punts grocs i vermells al mapa.

Posi el ratolí al punt desitjat per veure el nom de l'estació.

Feu clic per veure les observacions i els pronòstics meteorològics.

Per canviar el mapa: feu clic els botons verds amb una creu de color negre per apropar; al botó verd amb un guió per allunyar la imatge; o en les fletxes verdes per a mapes adjacents.


METAR-TAF: